sensor_id;sensor_type;location;lat;lon;timestamp;temperature;humidity
52963;DHT22;38827;53.024;6.596;2024-01-16T00:02:15;0.30;90.20
52963;DHT22;38827;53.024;6.596;2024-01-16T00:04:47;0.30;90.10
52963;DHT22;38827;53.024;6.596;2024-01-16T00:07:19;0.30;90.00
52963;DHT22;38827;53.024;6.596;2024-01-16T00:10:00;0.20;90.00
52963;DHT22;38827;53.024;6.596;2024-01-16T00:12:35;0.20;89.80
52963;DHT22;38827;53.024;6.596;2024-01-16T00:15:36;0.20;89.70
52963;DHT22;38827;53.024;6.596;2024-01-16T00:18:05;0.20;89.60
52963;DHT22;38827;53.024;6.596;2024-01-16T00:20:30;0.10;89.60
52963;DHT22;38827;53.024;6.596;2024-01-16T00:23:02;0.10;89.40
52963;DHT22;38827;53.024;6.596;2024-01-16T00:25:27;0.10;89.40
52963;DHT22;38827;53.024;6.596;2024-01-16T00:27:56;0.10;89.10
52963;DHT22;38827;53.024;6.596;2024-01-16T00:30:22;0.10;89.10
52963;DHT22;38827;53.024;6.596;2024-01-16T00:32:47;0.00;88.90
52963;DHT22;38827;53.024;6.596;2024-01-16T00:35:18;0.00;89.00
52963;DHT22;38827;53.024;6.596;2024-01-16T00:37:44;0.00;89.10
52963;DHT22;38827;53.024;6.596;2024-01-16T00:40:10;0.00;89.00
52963;DHT22;38827;53.024;6.596;2024-01-16T00:42:45;0.00;88.90
52963;DHT22;38827;53.024;6.596;2024-01-16T00:45:19;0.00;89.00
52963;DHT22;38827;53.024;6.596;2024-01-16T00:47:45;0.00;89.10
52963;DHT22;38827;53.024;6.596;2024-01-16T00:50:11;0.10;89.20
52963;DHT22;38827;53.024;6.596;2024-01-16T00:56:10;0.20;88.90
52963;DHT22;38827;53.024;6.596;2024-01-16T00:58:43;0.20;88.90
52963;DHT22;38827;53.024;6.596;2024-01-16T01:01:12;0.30;88.90
52963;DHT22;38827;53.024;6.596;2024-01-16T01:03:38;0.30;88.90
52963;DHT22;38827;53.024;6.596;2024-01-16T01:06:09;0.40;88.60
52963;DHT22;38827;53.024;6.596;2024-01-16T01:08:41;0.40;88.70
52963;DHT22;38827;53.024;6.596;2024-01-16T01:11:16;0.50;88.70
52963;DHT22;38827;53.024;6.596;2024-01-16T01:13:51;0.50;88.60
52963;DHT22;38827;53.024;6.596;2024-01-16T01:16:17;0.50;88.40
52963;DHT22;38827;53.024;6.596;2024-01-16T01:18:42;0.50;88.30
52963;DHT22;38827;53.024;6.596;2024-01-16T01:21:11;0.40;88.50
52963;DHT22;38827;53.024;6.596;2024-01-16T01:23:37;0.40;88.50
52963;DHT22;38827;53.024;6.596;2024-01-16T01:26:02;0.30;88.60
52963;DHT22;38827;53.024;6.596;2024-01-16T01:28:57;0.30;88.60
52963;DHT22;38827;53.024;6.596;2024-01-16T01:31:32;0.20;89.00
52963;DHT22;38827;53.024;6.596;2024-01-16T01:33:57;0.20;89.10
52963;DHT22;38827;53.024;6.596;2024-01-16T01:36:29;0.10;89.10
52963;DHT22;38827;53.024;6.596;2024-01-16T01:39:03;0.10;89.20
52963;DHT22;38827;53.024;6.596;2024-01-16T01:41:29;0.10;89.40
52963;DHT22;38827;53.024;6.596;2024-01-16T01:43:57;0.00;89.40
52963;DHT22;38827;53.024;6.596;2024-01-16T01:46:23;0.00;89.40
52963;DHT22;38827;53.024;6.596;2024-01-16T01:49:01;-0.10;89.50
52963;DHT22;38827;53.024;6.596;2024-01-16T01:51:26;-0.10;89.50
52963;DHT22;38827;53.024;6.596;2024-01-16T01:58:09;-0.10;89.80
52963;DHT22;38827;53.024;6.596;2024-01-16T02:00:38;-0.10;90.00
52963;DHT22;38827;53.024;6.596;2024-01-16T02:03:09;-0.10;90.20
52963;DHT22;38827;53.024;6.596;2024-01-16T02:05:35;-0.10;90.30
52963;DHT22;38827;53.024;6.596;2024-01-16T02:08:02;-0.10;90.30
52963;DHT22;38827;53.024;6.596;2024-01-16T02:10:28;-0.10;90.40
52963;DHT22;38827;53.024;6.596;2024-01-16T02:12:54;-0.10;90.30
52963;DHT22;38827;53.024;6.596;2024-01-16T02:15:19;0.00;90.30
52963;DHT22;38827;53.024;6.596;2024-01-16T02:17:47;0.00;90.30
52963;DHT22;38827;53.024;6.596;2024-01-16T02:20:13;0.00;90.30
52963;DHT22;38827;53.024;6.596;2024-01-16T02:22:39;0.10;90.30
52963;DHT22;38827;53.024;6.596;2024-01-16T02:25:13;0.10;90.30
52963;DHT22;38827;53.024;6.596;2024-01-16T02:27:39;0.20;90.30
52963;DHT22;38827;53.024;6.596;2024-01-16T02:30:05;0.20;90.20
52963;DHT22;38827;53.024;6.596;2024-01-16T02:32:31;0.20;90.00
52963;DHT22;38827;53.024;6.596;2024-01-16T02:34:58;0.20;89.90
52963;DHT22;38827;53.024;6.596;2024-01-16T02:37:24;0.20;89.80
52963;DHT22;38827;53.024;6.596;2024-01-16T02:40:05;0.20;89.90
52963;DHT22;38827;53.024;6.596;2024-01-16T02:42:34;0.20;90.10
52963;DHT22;38827;53.024;6.596;2024-01-16T02:45:03;0.20;90.40
52963;DHT22;38827;53.024;6.596;2024-01-16T02:47:33;0.20;90.50
52963;DHT22;38827;53.024;6.596;2024-01-16T02:49:59;0.30;90.50
52963;DHT22;38827;53.024;6.596;2024-01-16T02:52:25;0.30;90.50
52963;DHT22;38827;53.024;6.596;2024-01-16T02:54:51;0.30;90.40
52963;DHT22;38827;53.024;6.596;2024-01-16T02:57:17;0.30;90.40
52963;DHT22;38827;53.024;6.596;2024-01-16T02:59:45;0.30;90.50
52963;DHT22;38827;53.024;6.596;2024-01-16T03:02:11;0.30;90.60
52963;DHT22;38827;53.024;6.596;2024-01-16T03:04:37;0.20;90.60
52963;DHT22;38827;53.024;6.596;2024-01-16T03:07:03;0.20;90.70
52963;DHT22;38827;53.024;6.596;2024-01-16T03:09:29;0.10;90.90
52963;DHT22;38827;53.024;6.596;2024-01-16T03:11:55;0.10;90.90
52963;DHT22;38827;53.024;6.596;2024-01-16T03:14:21;0.10;91.00
52963;DHT22;38827;53.024;6.596;2024-01-16T03:16:46;0.00;91.00
52963;DHT22;38827;53.024;6.596;2024-01-16T03:19:12;0.00;91.20
52963;DHT22;38827;53.024;6.596;2024-01-16T03:21:38;0.00;91.20
52963;DHT22;38827;53.024;6.596;2024-01-16T03:24:05;-0.10;91.40
52963;DHT22;38827;53.024;6.596;2024-01-16T03:26:31;0.00;91.50
52963;DHT22;38827;53.024;6.596;2024-01-16T03:28:58;-0.10;91.20
52963;DHT22;38827;53.024;6.596;2024-01-16T03:31:24;-0.10;91.50
52963;DHT22;38827;53.024;6.596;2024-01-16T03:33:50;-0.10;91.50
52963;DHT22;38827;53.024;6.596;2024-01-16T03:36:16;-0.10;91.50
52963;DHT22;38827;53.024;6.596;2024-01-16T03:38:44;-0.10;91.40
52963;DHT22;38827;53.024;6.596;2024-01-16T03:41:15;-0.10;91.60
52963;DHT22;38827;53.024;6.596;2024-01-16T03:43:41;-0.10;91.50
52963;DHT22;38827;53.024;6.596;2024-01-16T03:46:06;-0.10;91.50
52963;DHT22;38827;53.024;6.596;2024-01-16T03:48:33;-0.10;91.40
52963;DHT22;38827;53.024;6.596;2024-01-16T03:50:58;-0.10;91.50
52963;DHT22;38827;53.024;6.596;2024-01-16T03:53:24;-0.10;91.40
52963;DHT22;38827;53.024;6.596;2024-01-16T03:55:50;-0.10;91.30
52963;DHT22;38827;53.024;6.596;2024-01-16T03:58:19;-0.10;91.10
52963;DHT22;38827;53.024;6.596;2024-01-16T04:00:45;-0.10;91.10
52963;DHT22;38827;53.024;6.596;2024-01-16T04:03:11;-0.10;90.80
52963;DHT22;38827;53.024;6.596;2024-01-16T04:05:37;-0.10;90.90
52963;DHT22;38827;53.024;6.596;2024-01-16T04:08:03;-0.10;90.60
52963;DHT22;38827;53.024;6.596;2024-01-16T04:10:28;-0.10;90.70
52963;DHT22;38827;53.024;6.596;2024-01-16T04:12:54;-0.10;90.50
52963;DHT22;38827;53.024;6.596;2024-01-16T04:15:20;-0.10;90.50
52963;DHT22;38827;53.024;6.596;2024-01-16T04:17:47;-0.10;90.30
52963;DHT22;38827;53.024;6.596;2024-01-16T04:20:16;-0.10;90.30
52963;DHT22;38827;53.024;6.596;2024-01-16T04:22:42;-0.10;90.20
52963;DHT22;38827;53.024;6.596;2024-01-16T04:25:07;-0.10;90.10
52963;DHT22;38827;53.024;6.596;2024-01-16T04:27:33;0.00;90.00
52963;DHT22;38827;53.024;6.596;2024-01-16T04:29:59;-0.10;89.90
52963;DHT22;38827;53.024;6.596;2024-01-16T04:32:24;0.00;89.80
52963;DHT22;38827;53.024;6.596;2024-01-16T04:34:50;-0.10;89.60
52963;DHT22;38827;53.024;6.596;2024-01-16T04:37:16;0.00;89.50
52963;DHT22;38827;53.024;6.596;2024-01-16T04:39:41;0.00;89.50
52963;DHT22;38827;53.024;6.596;2024-01-16T04:42:07;0.00;89.40
52963;DHT22;38827;53.024;6.596;2024-01-16T04:44:33;0.00;89.40
52963;DHT22;38827;53.024;6.596;2024-01-16T04:46:58;0.00;89.30
52963;DHT22;38827;53.024;6.596;2024-01-16T04:49:24;0.00;89.50
52963;DHT22;38827;53.024;6.596;2024-01-16T04:51:54;0.00;89.40
52963;DHT22;38827;53.024;6.596;2024-01-16T04:54:20;0.10;89.40
52963;DHT22;38827;53.024;6.596;2024-01-16T04:56:46;0.10;89.40
52963;DHT22;38827;53.024;6.596;2024-01-16T04:59:11;0.10;89.20
52963;DHT22;38827;53.024;6.596;2024-01-16T05:01:37;0.10;89.20
52963;DHT22;38827;53.024;6.596;2024-01-16T05:04:03;0.20;89.30
52963;DHT22;38827;53.024;6.596;2024-01-16T05:06:29;0.20;89.10
52963;DHT22;38827;53.024;6.596;2024-01-16T05:08:55;0.20;88.90
52963;DHT22;38827;53.024;6.596;2024-01-16T05:11:21;0.20;89.00
52963;DHT22;38827;53.024;6.596;2024-01-16T05:13:59;0.30;88.90
52963;DHT22;38827;53.024;6.596;2024-01-16T05:16:25;0.30;88.90
52963;DHT22;38827;53.024;6.596;2024-01-16T05:19:13;0.30;88.80
52963;DHT22;38827;53.024;6.596;2024-01-16T05:21:47;0.30;88.80
52963;DHT22;38827;53.024;6.596;2024-01-16T05:24:13;0.40;88.90
52963;DHT22;38827;53.024;6.596;2024-01-16T05:29:27;0.40;88.70
52963;DHT22;38827;53.024;6.596;2024-01-16T05:31:56;0.40;88.80
52963;DHT22;38827;53.024;6.596;2024-01-16T05:34:34;0.40;88.90
52963;DHT22;38827;53.024;6.596;2024-01-16T05:36:59;0.40;88.90
52963;DHT22;38827;53.024;6.596;2024-01-16T05:42:09;0.40;88.90
52963;DHT22;38827;53.024;6.596;2024-01-16T05:44:51;0.40;88.90
52963;DHT22;38827;53.024;6.596;2024-01-16T05:47:19;0.40;88.50
52963;DHT22;38827;53.024;6.596;2024-01-16T05:49:57;0.40;88.80
52963;DHT22;38827;53.024;6.596;2024-01-16T05:52:22;0.40;88.90
52963;DHT22;38827;53.024;6.596;2024-01-16T05:54:58;0.40;88.90
52963;DHT22;38827;53.024;6.596;2024-01-16T05:57:37;0.40;89.00
52963;DHT22;38827;53.024;6.596;2024-01-16T06:00:18;0.40;88.90
52963;DHT22;38827;53.024;6.596;2024-01-16T06:05:21;0.40;88.80
52963;DHT22;38827;53.024;6.596;2024-01-16T06:07:53;0.40;89.00
52963;DHT22;38827;53.024;6.596;2024-01-16T06:10:34;0.40;88.90
52963;DHT22;38827;53.024;6.596;2024-01-16T06:13:04;0.40;88.80
52963;DHT22;38827;53.024;6.596;2024-01-16T06:15:42;0.40;88.90
52963;DHT22;38827;53.024;6.596;2024-01-16T06:18:26;0.40;88.90
52963;DHT22;38827;53.024;6.596;2024-01-16T06:21:02;0.40;88.80
52963;DHT22;38827;53.024;6.596;2024-01-16T06:23:37;0.30;88.90
52963;DHT22;38827;53.024;6.596;2024-01-16T06:26:18;0.30;88.90
52963;DHT22;38827;53.024;6.596;2024-01-16T06:32:10;0.30;89.00
52963;DHT22;38827;53.024;6.596;2024-01-16T06:34:39;0.40;89.10
52963;DHT22;38827;53.024;6.596;2024-01-16T06:37:08;0.40;89.10
52963;DHT22;38827;53.024;6.596;2024-01-16T06:40:09;0.40;88.90
52963;DHT22;38827;53.024;6.596;2024-01-16T06:42:34;0.40;88.70
52963;DHT22;38827;53.024;6.596;2024-01-16T06:45:04;0.30;88.90
52963;DHT22;38827;53.024;6.596;2024-01-16T06:47:33;0.40;88.90
52963;DHT22;38827;53.024;6.596;2024-01-16T06:50:29;0.40;88.90
52963;DHT22;38827;53.024;6.596;2024-01-16T06:52:55;0.40;88.90
52963;DHT22;38827;53.024;6.596;2024-01-16T06:55:30;0.40;88.80
52963;DHT22;38827;53.024;6.596;2024-01-16T06:58:11;0.40;88.90
52963;DHT22;38827;53.024;6.596;2024-01-16T07:00:48;0.40;88.90
52963;DHT22;38827;53.024;6.596;2024-01-16T07:06:04;0.40;89.00
52963;DHT22;38827;53.024;6.596;2024-01-16T07:08:39;0.40;89.20
52963;DHT22;38827;53.024;6.596;2024-01-16T07:11:04;0.50;89.10
52963;DHT22;38827;53.024;6.596;2024-01-16T07:13:33;0.50;89.00
52963;DHT22;38827;53.024;6.596;2024-01-16T07:16:00;0.50;89.00
52963;DHT22;38827;53.024;6.596;2024-01-16T07:18:32;0.50;89.10
52963;DHT22;38827;53.024;6.596;2024-01-16T07:21:29;0.50;89.00
52963;DHT22;38827;53.024;6.596;2024-01-16T07:24:07;0.60;89.10
52963;DHT22;38827;53.024;6.596;2024-01-16T07:27:10;0.60;89.20
52963;DHT22;38827;53.024;6.596;2024-01-16T07:29:39;0.60;89.10
52963;DHT22;38827;53.024;6.596;2024-01-16T07:32:18;0.60;89.30
52963;DHT22;38827;53.024;6.596;2024-01-16T07:34:43;0.60;89.20
52963;DHT22;38827;53.024;6.596;2024-01-16T07:37:10;0.50;89.20
52963;DHT22;38827;53.024;6.596;2024-01-16T07:39:36;0.50;89.20
52963;DHT22;38827;53.024;6.596;2024-01-16T07:42:10;0.50;89.20
52963;DHT22;38827;53.024;6.596;2024-01-16T07:44:48;0.50;89.50
52963;DHT22;38827;53.024;6.596;2024-01-16T07:51:29;0.50;89.20
52963;DHT22;38827;53.024;6.596;2024-01-16T07:54:10;0.50;89.40
52963;DHT22;38827;53.024;6.596;2024-01-16T07:56:56;0.50;89.50
52963;DHT22;38827;53.024;6.596;2024-01-16T07:59:21;0.50;89.50
52963;DHT22;38827;53.024;6.596;2024-01-16T08:02:06;0.50;89.60
52963;DHT22;38827;53.024;6.596;2024-01-16T08:04:31;0.50;89.70
52963;DHT22;38827;53.024;6.596;2024-01-16T08:07:28;0.50;89.90
52963;DHT22;38827;53.024;6.596;2024-01-16T08:10:00;0.60;90.00
52963;DHT22;38827;53.024;6.596;2024-01-16T08:12:44;0.60;89.90
52963;DHT22;38827;53.024;6.596;2024-01-16T08:15:19;0.60;89.80
52963;DHT22;38827;53.024;6.596;2024-01-16T08:17:57;0.70;90.10
52963;DHT22;38827;53.024;6.596;2024-01-16T08:20:28;0.70;89.80
52963;DHT22;38827;53.024;6.596;2024-01-16T08:23:00;0.70;89.90
52963;DHT22;38827;53.024;6.596;2024-01-16T08:25:25;0.80;89.90
52963;DHT22;38827;53.024;6.596;2024-01-16T08:28:03;0.80;89.80
52963;DHT22;38827;53.024;6.596;2024-01-16T08:30:36;1.00;89.90
52963;DHT22;38827;53.024;6.596;2024-01-16T08:33:02;1.20;90.10
52963;DHT22;38827;53.024;6.596;2024-01-16T08:35:43;1.50;89.90
52963;DHT22;38827;53.024;6.596;2024-01-16T08:38:50;2.00;89.60
52963;DHT22;38827;53.024;6.596;2024-01-16T08:41:16;2.70;88.00
52963;DHT22;38827;53.024;6.596;2024-01-16T08:43:42;3.30;86.80
52963;DHT22;38827;53.024;6.596;2024-01-16T08:46:11;3.80;85.80
52963;DHT22;38827;53.024;6.596;2024-01-16T08:54:10;3.90;81.30
52963;DHT22;38827;53.024;6.596;2024-01-16T08:57:08;3.40;81.60
52963;DHT22;38827;53.024;6.596;2024-01-16T09:02:16;2.70;83.10
52963;DHT22;38827;53.024;6.596;2024-01-16T09:04:45;2.50;83.80
52963;DHT22;38827;53.024;6.596;2024-01-16T09:07:26;2.30;84.20
52963;DHT22;38827;53.024;6.596;2024-01-16T09:09:55;2.20;84.60
52963;DHT22;38827;53.024;6.596;2024-01-16T09:12:36;2.10;85.00
52963;DHT22;38827;53.024;6.596;2024-01-16T09:15:05;2.10;85.10
52963;DHT22;38827;53.024;6.596;2024-01-16T09:17:31;2.10;85.30
52963;DHT22;38827;53.024;6.596;2024-01-16T09:20:09;2.10;85.60
52963;DHT22;38827;53.024;6.596;2024-01-16T09:22:35;2.10;85.40
52963;DHT22;38827;53.024;6.596;2024-01-16T09:25:09;2.10;85.40
52963;DHT22;38827;53.024;6.596;2024-01-16T09:27:35;2.10;85.30
52963;DHT22;38827;53.024;6.596;2024-01-16T09:30:10;2.10;85.40
52963;DHT22;38827;53.024;6.596;2024-01-16T09:32:38;2.10;85.40
52963;DHT22;38827;53.024;6.596;2024-01-16T09:35:06;2.10;85.40
52963;DHT22;38827;53.024;6.596;2024-01-16T09:37:43;2.10;85.60
52963;DHT22;38827;53.024;6.596;2024-01-16T09:40:09;2.10;85.60
52963;DHT22;38827;53.024;6.596;2024-01-16T09:42:48;2.10;85.70
52963;DHT22;38827;53.024;6.596;2024-01-16T09:45:19;2.20;85.60
52963;DHT22;38827;53.024;6.596;2024-01-16T09:47:47;2.20;85.80
52963;DHT22;38827;53.024;6.596;2024-01-16T09:50:15;2.20;85.90
52963;DHT22;38827;53.024;6.596;2024-01-16T09:52:51;2.30;85.80
52963;DHT22;38827;53.024;6.596;2024-01-16T09:55:18;2.30;85.80
52963;DHT22;38827;53.024;6.596;2024-01-16T09:58:02;2.30;85.90
52963;DHT22;38827;53.024;6.596;2024-01-16T10:00:34;2.30;85.90
52963;DHT22;38827;53.024;6.596;2024-01-16T10:03:06;2.30;86.00
52963;DHT22;38827;53.024;6.596;2024-01-16T10:05:42;2.30;86.00
52963;DHT22;38827;53.024;6.596;2024-01-16T10:08:08;2.40;86.20
52963;DHT22;38827;53.024;6.596;2024-01-16T10:10:34;2.40;86.20
52963;DHT22;38827;53.024;6.596;2024-01-16T10:13:00;2.50;86.10
52963;DHT22;38827;53.024;6.596;2024-01-16T10:15:35;2.50;86.10
52963;DHT22;38827;53.024;6.596;2024-01-16T10:18:05;2.60;86.10
52963;DHT22;38827;53.024;6.596;2024-01-16T10:20:37;2.70;86.20
52963;DHT22;38827;53.024;6.596;2024-01-16T10:23:03;2.90;85.60
52963;DHT22;38827;53.024;6.596;2024-01-16T10:25:29;3.00;85.20
52963;DHT22;38827;53.024;6.596;2024-01-16T10:28:06;3.10;85.30
52963;DHT22;38827;53.024;6.596;2024-01-16T10:30:33;3.20;84.70
52963;DHT22;38827;53.024;6.596;2024-01-16T10:33:15;3.10;84.20
52963;DHT22;38827;53.024;6.596;2024-01-16T10:35:41;3.10;84.10
52963;DHT22;38827;53.024;6.596;2024-01-16T10:38:07;3.20;84.30
52963;DHT22;38827;53.024;6.596;2024-01-16T10:40:33;3.20;84.40
52963;DHT22;38827;53.024;6.596;2024-01-16T10:43:04;3.20;84.20
52963;DHT22;38827;53.024;6.596;2024-01-16T10:45:30;3.20;83.90
52963;DHT22;38827;53.024;6.596;2024-01-16T10:48:05;3.20;83.60
52963;DHT22;38827;53.024;6.596;2024-01-16T10:50:35;3.20;83.60
52963;DHT22;38827;53.024;6.596;2024-01-16T10:53:04;3.10;83.40
52963;DHT22;38827;53.024;6.596;2024-01-16T10:55:31;3.10;83.10
52963;DHT22;38827;53.024;6.596;2024-01-16T10:58:02;3.00;83.20
52963;DHT22;38827;53.024;6.596;2024-01-16T11:00:28;3.00;83.20
52963;DHT22;38827;53.024;6.596;2024-01-16T11:03:05;2.90;83.40
52963;DHT22;38827;53.024;6.596;2024-01-16T11:05:35;2.90;83.40
52963;DHT22;38827;53.024;6.596;2024-01-16T11:08:03;2.80;83.30
52963;DHT22;38827;53.024;6.596;2024-01-16T11:10:34;2.70;83.50
52963;DHT22;38827;53.024;6.596;2024-01-16T11:13:02;2.70;83.60
52963;DHT22;38827;53.024;6.596;2024-01-16T11:15:31;2.60;83.40
52963;DHT22;38827;53.024;6.596;2024-01-16T11:17:59;2.60;83.60
52963;DHT22;38827;53.024;6.596;2024-01-16T11:20:25;2.50;83.70
52963;DHT22;38827;53.024;6.596;2024-01-16T11:22:59;2.50;83.90
52963;DHT22;38827;53.024;6.596;2024-01-16T11:25:32;2.60;84.00
52963;DHT22;38827;53.024;6.596;2024-01-16T11:28:12;2.60;83.80
52963;DHT22;38827;53.024;6.596;2024-01-16T11:30:41;2.50;83.30
52963;DHT22;38827;53.024;6.596;2024-01-16T11:35:56;2.30;83.30
52963;DHT22;38827;53.024;6.596;2024-01-16T11:38:23;2.20;83.80
52963;DHT22;38827;53.024;6.596;2024-01-16T11:40:49;2.10;84.30
52963;DHT22;38827;53.024;6.596;2024-01-16T11:46:05;2.00;85.00
52963;DHT22;38827;53.024;6.596;2024-01-16T11:48:35;1.90;85.20
52963;DHT22;38827;53.024;6.596;2024-01-16T11:51:23;2.00;85.70
52963;DHT22;38827;53.024;6.596;2024-01-16T11:53:49;2.00;85.40
52963;DHT22;38827;53.024;6.596;2024-01-16T12:01:36;2.20;85.30
52963;DHT22;38827;53.024;6.596;2024-01-16T12:04:05;2.30;85.30
52963;DHT22;38827;53.024;6.596;2024-01-16T12:06:33;2.40;85.10
52963;DHT22;38827;53.024;6.596;2024-01-16T12:09:16;2.50;85.00
52963;DHT22;38827;53.024;6.596;2024-01-16T12:11:43;2.70;84.80
52963;DHT22;38827;53.024;6.596;2024-01-16T12:14:14;2.80;84.40
52963;DHT22;38827;53.024;6.596;2024-01-16T12:16:39;3.00;84.40
52963;DHT22;38827;53.024;6.596;2024-01-16T12:19:08;3.20;83.90
52963;DHT22;38827;53.024;6.596;2024-01-16T12:21:42;3.40;83.70
52963;DHT22;38827;53.024;6.596;2024-01-16T12:24:10;3.50;82.80
52963;DHT22;38827;53.024;6.596;2024-01-16T12:26:37;3.50;81.90
52963;DHT22;38827;53.024;6.596;2024-01-16T12:29:03;3.50;81.90
52963;DHT22;38827;53.024;6.596;2024-01-16T12:31:29;3.50;81.80
52963;DHT22;38827;53.024;6.596;2024-01-16T12:34:15;3.40;81.60
52963;DHT22;38827;53.024;6.596;2024-01-16T12:36:41;3.40;81.50
52963;DHT22;38827;53.024;6.596;2024-01-16T12:39:08;3.30;81.90
52963;DHT22;38827;53.024;6.596;2024-01-16T12:41:41;3.30;81.50
52963;DHT22;38827;53.024;6.596;2024-01-16T12:44:08;3.20;81.60
52963;DHT22;38827;53.024;6.596;2024-01-16T12:46:40;3.20;81.40
52963;DHT22;38827;53.024;6.596;2024-01-16T12:49:05;3.10;81.50
52963;DHT22;38827;53.024;6.596;2024-01-16T12:51:32;3.10;81.70
52963;DHT22;38827;53.024;6.596;2024-01-16T12:54:15;3.00;81.40
52963;DHT22;38827;53.024;6.596;2024-01-16T12:56:41;3.00;81.40
52963;DHT22;38827;53.024;6.596;2024-01-16T12:59:27;2.90;81.40
52963;DHT22;38827;53.024;6.596;2024-01-16T13:01:55;2.80;81.40
52963;DHT22;38827;53.024;6.596;2024-01-16T13:04:20;2.80;81.70
52963;DHT22;38827;53.024;6.596;2024-01-16T13:06:50;2.70;81.60
52963;DHT22;38827;53.024;6.596;2024-01-16T13:09:15;2.70;82.00
52963;DHT22;38827;53.024;6.596;2024-01-16T13:12:07;2.70;81.90
52963;DHT22;38827;53.024;6.596;2024-01-16T13:14:33;2.60;81.70
52963;DHT22;38827;53.024;6.596;2024-01-16T13:16:59;2.50;82.10
52963;DHT22;38827;53.024;6.596;2024-01-16T13:19:29;2.60;82.20
52963;DHT22;38827;53.024;6.596;2024-01-16T13:21:58;2.60;81.20
52963;DHT22;38827;53.024;6.596;2024-01-16T13:24:25;2.60;81.90
52963;DHT22;38827;53.024;6.596;2024-01-16T13:26:51;2.60;81.80
52963;DHT22;38827;53.024;6.596;2024-01-16T13:29:17;2.60;80.40
52963;DHT22;38827;53.024;6.596;2024-01-16T13:31:46;2.60;81.60
52963;DHT22;38827;53.024;6.596;2024-01-16T13:34:12;2.60;81.40
52963;DHT22;38827;53.024;6.596;2024-01-16T13:36:37;2.70;81.30
52963;DHT22;38827;53.024;6.596;2024-01-16T13:39:03;2.70;80.80
52963;DHT22;38827;53.024;6.596;2024-01-16T13:41:29;2.80;80.40
52963;DHT22;38827;53.024;6.596;2024-01-16T13:43:58;2.80;80.60
52963;DHT22;38827;53.024;6.596;2024-01-16T13:46:23;2.90;80.40
52963;DHT22;38827;53.024;6.596;2024-01-16T13:48:49;3.00;80.30
52963;DHT22;38827;53.024;6.596;2024-01-16T13:51:23;3.00;79.70
52963;DHT22;38827;53.024;6.596;2024-01-16T13:53:49;3.10;79.60
52963;DHT22;38827;53.024;6.596;2024-01-16T13:56:18;3.10;78.90
52963;DHT22;38827;53.024;6.596;2024-01-16T13:58:43;3.10;78.90
52963;DHT22;38827;53.024;6.596;2024-01-16T14:01:09;3.10;79.10
52963;DHT22;38827;53.024;6.596;2024-01-16T14:03:35;3.20;79.10
52963;DHT22;38827;53.024;6.596;2024-01-16T14:06:00;3.30;78.50
52963;DHT22;38827;53.024;6.596;2024-01-16T14:08:26;3.30;77.70
52963;DHT22;38827;53.024;6.596;2024-01-16T14:10:52;3.20;78.00
52963;DHT22;38827;53.024;6.596;2024-01-16T14:13:17;3.20;77.70
52963;DHT22;38827;53.024;6.596;2024-01-16T14:15:43;3.10;77.80
52963;DHT22;38827;53.024;6.596;2024-01-16T14:18:09;3.10;78.40
52963;DHT22;38827;53.024;6.596;2024-01-16T14:20:39;3.10;78.90
52963;DHT22;38827;53.024;6.596;2024-01-16T14:23:07;3.20;78.30
52963;DHT22;38827;53.024;6.596;2024-01-16T14:25:42;3.20;77.70
52963;DHT22;38827;53.024;6.596;2024-01-16T14:28:11;3.10;77.50
52963;DHT22;38827;53.024;6.596;2024-01-16T14:30:37;2.90;77.20
52963;DHT22;38827;53.024;6.596;2024-01-16T14:33:12;2.90;77.50
52963;DHT22;38827;53.024;6.596;2024-01-16T14:35:38;2.80;77.70
52963;DHT22;38827;53.024;6.596;2024-01-16T14:38:12;2.80;77.40
52963;DHT22;38827;53.024;6.596;2024-01-16T14:40:38;2.70;77.20
52963;DHT22;38827;53.024;6.596;2024-01-16T14:43:03;2.70;77.30
52963;DHT22;38827;53.024;6.596;2024-01-16T14:45:32;2.70;77.30
52963;DHT22;38827;53.024;6.596;2024-01-16T14:48:04;2.70;77.20
52963;DHT22;38827;53.024;6.596;2024-01-16T14:50:30;2.70;77.10
52963;DHT22;38827;53.024;6.596;2024-01-16T14:52:56;2.70;77.20
52963;DHT22;38827;53.024;6.596;2024-01-16T14:55:21;2.70;77.10
52963;DHT22;38827;53.024;6.596;2024-01-16T14:57:50;2.70;77.00
52963;DHT22;38827;53.024;6.596;2024-01-16T15:00:21;2.70;76.90
52963;DHT22;38827;53.024;6.596;2024-01-16T15:02:53;2.70;77.30
52963;DHT22;38827;53.024;6.596;2024-01-16T15:05:22;2.60;77.10
52963;DHT22;38827;53.024;6.596;2024-01-16T15:07:51;2.60;77.20
52963;DHT22;38827;53.024;6.596;2024-01-16T15:10:20;2.50;77.30
52963;DHT22;38827;53.024;6.596;2024-01-16T15:12:46;2.40;77.40
52963;DHT22;38827;53.024;6.596;2024-01-16T15:15:15;2.30;77.80
52963;DHT22;38827;53.024;6.596;2024-01-16T15:17:42;2.20;78.10
52963;DHT22;38827;53.024;6.596;2024-01-16T15:20:09;2.10;78.30
52963;DHT22;38827;53.024;6.596;2024-01-16T15:22:41;2.00;78.50
52963;DHT22;38827;53.024;6.596;2024-01-16T15:25:09;2.00;78.40
52963;DHT22;38827;53.024;6.596;2024-01-16T15:27:35;1.90;78.90
52963;DHT22;38827;53.024;6.596;2024-01-16T15:30:03;1.80;79.10
52963;DHT22;38827;53.024;6.596;2024-01-16T15:32:29;1.80;79.30
52963;DHT22;38827;53.024;6.596;2024-01-16T15:34:55;1.70;79.60
52963;DHT22;38827;53.024;6.596;2024-01-16T15:37:24;1.70;79.60
52963;DHT22;38827;53.024;6.596;2024-01-16T15:39:49;1.60;79.70
52963;DHT22;38827;53.024;6.596;2024-01-16T15:42:15;1.60;79.90
52963;DHT22;38827;53.024;6.596;2024-01-16T15:44:42;1.60;79.90
52963;DHT22;38827;53.024;6.596;2024-01-16T15:47:08;1.50;80.10
52963;DHT22;38827;53.024;6.596;2024-01-16T15:49:34;1.50;80.20
52963;DHT22;38827;53.024;6.596;2024-01-16T15:52:01;1.40;80.30
52963;DHT22;38827;53.024;6.596;2024-01-16T15:54:30;1.40;80.40
52963;DHT22;38827;53.024;6.596;2024-01-16T15:56:56;1.40;80.40
52963;DHT22;38827;53.024;6.596;2024-01-16T15:59:22;1.30;80.50
52963;DHT22;38827;53.024;6.596;2024-01-16T16:01:48;1.30;80.60
52963;DHT22;38827;53.024;6.596;2024-01-16T16:04:16;1.30;80.70
52963;DHT22;38827;53.024;6.596;2024-01-16T16:06:43;1.30;80.80
52963;DHT22;38827;53.024;6.596;2024-01-16T16:09:10;1.30;80.90
52963;DHT22;38827;53.024;6.596;2024-01-16T16:11:43;1.30;80.90
52963;DHT22;38827;53.024;6.596;2024-01-16T16:14:16;1.30;81.20
52963;DHT22;38827;53.024;6.596;2024-01-16T16:16:42;1.20;81.20
52963;DHT22;38827;53.024;6.596;2024-01-16T16:19:14;1.20;81.10
52963;DHT22;38827;53.024;6.596;2024-01-16T16:21:43;1.20;81.20
52963;DHT22;38827;53.024;6.596;2024-01-16T16:24:10;1.20;81.20
52963;DHT22;38827;53.024;6.596;2024-01-16T16:27:02;1.20;81.20
52963;DHT22;38827;53.024;6.596;2024-01-16T16:29:31;1.10;81.20
52963;DHT22;38827;53.024;6.596;2024-01-16T16:31:57;1.10;81.40
52963;DHT22;38827;53.024;6.596;2024-01-16T16:34:23;1.10;81.30
52963;DHT22;38827;53.024;6.596;2024-01-16T16:36:49;1.10;81.20
52963;DHT22;38827;53.024;6.596;2024-01-16T16:39:21;1.00;81.10
52963;DHT22;38827;53.024;6.596;2024-01-16T16:41:54;1.10;81.00
52963;DHT22;38827;53.024;6.596;2024-01-16T16:44:31;1.00;81.00
52963;DHT22;38827;53.024;6.596;2024-01-16T16:46:56;1.00;81.00
52963;DHT22;38827;53.024;6.596;2024-01-16T16:49:24;1.00;81.00